createdAt,value
2023-03-16T00:00:16.474Z,-0.33
2023-03-16T00:01:16.451Z,-0.34
2023-03-16T00:02:16.555Z,-0.25
2023-03-16T00:03:16.530Z,-0.23
2023-03-16T00:04:16.437Z,-0.31
2023-03-16T00:05:16.435Z,-0.26
2023-03-16T00:06:16.415Z,-0.29
2023-03-16T00:07:16.396Z,-0.33
2023-03-16T00:08:16.399Z,-0.34
2023-03-16T00:09:16.359Z,-0.33
2023-03-16T00:10:16.376Z,-0.29
2023-03-16T00:11:16.373Z,-0.34
2023-03-16T00:12:16.393Z,-0.36
2023-03-16T00:13:16.340Z,-0.23
2023-03-16T00:14:16.304Z,-0.15
2023-03-16T00:15:16.396Z,-0.16
2023-03-16T00:16:16.338Z,-0.18
2023-03-16T00:17:16.321Z,-0.23
2023-03-16T00:18:16.265Z,-0.21
2023-03-16T00:19:16.293Z,-0.15
2023-03-16T00:20:16.238Z,-0.14
2023-03-16T00:21:16.236Z,-0.18
2023-03-16T00:22:16.248Z,-0.29
2023-03-16T00:23:16.257Z,-0.25
2023-03-16T00:24:16.204Z,-0.31
2023-03-16T00:25:16.211Z,-0.40
2023-03-16T00:26:16.173Z,-0.34
2023-03-16T00:27:16.161Z,-0.37
2023-03-16T00:28:16.151Z,-0.47
2023-03-16T00:29:16.195Z,-0.55
2023-03-16T00:30:16.138Z,-0.47
2023-03-16T00:31:16.191Z,-0.43
2023-03-16T00:32:16.106Z,-0.40
2023-03-16T00:33:16.091Z,-0.37
2023-03-16T00:34:16.098Z,-0.37
2023-03-16T00:35:16.107Z,-0.28
2023-03-16T00:36:16.065Z,-0.34
2023-03-16T00:37:16.070Z,-0.21
2023-03-16T00:38:16.034Z,-0.15
2023-03-16T00:39:16.068Z,-0.15
2023-03-16T00:40:16.031Z,-0.08
2023-03-16T00:41:16.051Z,-0.11
2023-03-16T00:42:16.020Z,-0.07
2023-03-16T00:43:15.974Z,-0.07
2023-03-16T00:44:15.971Z,-0.10
2023-03-16T00:45:15.959Z,-0.03
2023-03-16T00:46:16.209Z,-0.14
2023-03-16T00:47:15.993Z,-0.03
2023-03-16T00:48:15.918Z,-0.18
2023-03-16T00:49:15.920Z,-0.23
2023-03-16T00:50:15.905Z,-0.16
2023-03-16T00:51:15.909Z,-0.23
2023-03-16T00:52:15.886Z,-0.36
2023-03-16T00:53:15.918Z,-0.37
2023-03-16T00:54:16.334Z,-0.39
2023-03-16T00:55:15.840Z,-0.46
2023-03-16T00:56:15.831Z,-0.42
2023-03-16T00:57:15.817Z,-0.42
2023-03-16T00:58:15.817Z,-0.39
2023-03-16T00:59:15.845Z,-0.42
2023-03-16T01:00:15.821Z,-0.40
2023-03-16T01:01:15.828Z,-0.39
2023-03-16T01:02:15.772Z,-0.43
2023-03-16T01:03:15.822Z,-0.47
2023-03-16T01:04:15.756Z,-0.44
2023-03-16T01:05:15.823Z,-0.44
2023-03-16T01:06:15.733Z,-0.40
2023-03-16T01:07:15.707Z,-0.43
2023-03-16T01:08:15.696Z,-0.57
2023-03-16T01:09:15.692Z,-0.60
2023-03-16T01:10:15.695Z,-0.60
2023-03-16T01:11:15.700Z,-0.64
2023-03-16T01:12:15.652Z,-0.61
2023-03-16T01:13:15.638Z,-0.57
2023-03-16T01:14:15.651Z,-0.75
2023-03-16T01:15:15.637Z,-0.76
2023-03-16T01:16:15.664Z,-0.76
2023-03-16T01:17:15.596Z,-0.78
2023-03-16T01:18:15.650Z,-0.83
2023-03-16T01:19:15.868Z,-0.85
2023-03-16T01:20:15.599Z,-0.92
2023-03-16T01:21:15.563Z,-0.89
2023-03-16T01:22:15.547Z,-1.04
2023-03-16T01:23:15.546Z,-0.94
2023-03-16T01:24:15.574Z,-1.07
2023-03-16T01:25:15.521Z,-1.01
2023-03-16T01:26:15.526Z,-1.02
2023-03-16T01:27:15.498Z,-1.09
2023-03-16T01:28:15.473Z,-1.07
2023-03-16T01:29:15.462Z,-1.15
2023-03-16T01:30:15.534Z,-1.01
2023-03-16T01:31:15.622Z,-1.15
2023-03-16T01:32:15.460Z,-1.16
2023-03-16T01:33:15.436Z,-1.12
2023-03-16T01:34:15.410Z,-1.15
2023-03-16T01:35:15.415Z,-1.17
2023-03-16T01:36:15.465Z,-1.28
2023-03-16T01:37:15.374Z,-1.20
2023-03-16T01:38:15.381Z,-1.20
2023-03-16T01:39:15.378Z,-1.25
2023-03-16T01:40:15.344Z,-1.17
2023-03-16T01:41:15.345Z,-1.25
2023-03-16T01:42:15.353Z,-1.22
2023-03-16T01:43:15.310Z,-1.17
2023-03-16T01:44:15.337Z,-1.22
2023-03-16T01:45:15.332Z,-1.19
2023-03-16T01:46:15.388Z,-1.28
2023-03-16T01:47:15.319Z,-1.33
2023-03-16T01:48:15.344Z,-1.22
2023-03-16T01:49:15.256Z,-1.27
2023-03-16T01:50:15.297Z,-1.31
2023-03-16T01:51:15.249Z,-1.33
2023-03-16T01:52:15.219Z,-1.33
2023-03-16T01:53:15.227Z,-1.34
2023-03-16T01:54:15.230Z,-1.37
2023-03-16T01:55:15.192Z,-1.27
2023-03-16T01:56:15.166Z,-1.35
2023-03-16T01:57:15.168Z,-1.31
2023-03-16T01:58:15.144Z,-1.31
2023-03-16T01:59:15.140Z,-1.41
2023-03-16T02:00:15.128Z,-1.37
2023-03-16T02:01:15.183Z,-1.35
2023-03-16T02:02:15.124Z,-1.45
2023-03-16T02:03:15.106Z,-1.48
2023-03-16T02:04:15.121Z,-1.54
2023-03-16T02:05:15.086Z,-1.54
2023-03-16T02:06:15.086Z,-1.43
2023-03-16T02:07:15.096Z,-1.41
2023-03-16T02:08:15.068Z,-1.45
2023-03-16T02:09:15.036Z,-1.31
2023-03-16T02:10:15.039Z,-1.33
2023-03-16T02:11:14.998Z,-1.22
2023-03-16T02:12:15.001Z,-1.20
2023-03-16T02:13:15.033Z,-1.22
2023-03-16T02:14:15.003Z,-1.25
2023-03-16T02:15:14.959Z,-1.30
2023-03-16T02:16:15.039Z,-1.30
2023-03-16T02:17:14.935Z,-1.27
2023-03-16T02:18:14.930Z,-1.31
2023-03-16T02:19:14.969Z,-1.34
2023-03-16T02:20:14.901Z,-1.28
2023-03-16T02:21:14.888Z,-1.34
2023-03-16T02:22:14.900Z,-1.31
2023-03-16T02:23:14.892Z,-1.27
2023-03-16T02:24:14.870Z,-1.23
2023-03-16T02:25:14.846Z,-1.33
2023-03-16T02:26:14.914Z,-1.28
2023-03-16T02:27:14.831Z,-1.40
2023-03-16T02:28:14.814Z,-1.37
2023-03-16T02:29:14.811Z,-1.35
2023-03-16T02:30:14.821Z,-1.35
2023-03-16T02:31:14.833Z,-1.49
2023-03-16T02:32:14.774Z,-1.54
2023-03-16T02:33:14.831Z,-1.49
2023-03-16T02:34:14.746Z,-1.56
2023-03-16T02:35:14.752Z,-1.54
2023-03-16T02:36:14.722Z,-1.58
2023-03-16T02:37:14.720Z,-1.59
2023-03-16T02:38:14.717Z,-1.58
2023-03-16T02:39:14.774Z,-1.58
2023-03-16T02:40:14.687Z,-1.61
2023-03-16T02:41:14.688Z,-1.55
2023-03-16T02:42:14.659Z,-1.56
2023-03-16T02:43:14.672Z,-1.58
2023-03-16T02:44:14.647Z,-1.59
2023-03-16T02:45:14.685Z,-1.56
2023-03-16T02:46:14.665Z,-1.62
2023-03-16T02:47:14.621Z,-1.62
2023-03-16T02:48:14.624Z,-1.66
2023-03-16T02:49:14.581Z,-1.59
2023-03-16T02:50:14.594Z,-1.61
2023-03-16T02:51:14.596Z,-1.54
2023-03-16T02:52:14.567Z,-1.61
2023-03-16T02:53:14.536Z,-1.46
2023-03-16T02:54:14.529Z,-1.46
2023-03-16T02:55:14.554Z,-1.54
2023-03-16T02:56:14.516Z,-1.49
2023-03-16T02:57:14.537Z,-1.51
2023-03-16T02:58:14.493Z,-1.49
2023-03-16T02:59:14.474Z,-1.54
2023-03-16T03:00:14.489Z,-1.61
2023-03-16T03:01:14.447Z,-1.58
2023-03-16T03:02:14.462Z,-1.61
2023-03-16T03:03:14.581Z,-1.55
2023-03-16T03:04:14.435Z,-1.55
2023-03-16T03:05:14.403Z,-1.64
2023-03-16T03:06:14.391Z,-1.56
2023-03-16T03:07:14.413Z,-1.58
2023-03-16T03:08:14.368Z,-1.62
2023-03-16T03:09:14.836Z,-1.66
2023-03-16T03:10:14.410Z,-1.67
2023-03-16T03:11:14.369Z,-1.72
2023-03-16T03:12:14.339Z,-1.85
2023-03-16T03:13:14.323Z,-1.95
2023-03-16T03:14:14.317Z,-1.91
2023-03-16T03:15:14.301Z,-1.97
2023-03-16T03:16:14.412Z,-1.98
2023-03-16T03:17:14.270Z,-1.92
2023-03-16T03:18:14.270Z,-1.88
2023-03-16T03:19:14.293Z,-1.91
2023-03-16T03:20:14.273Z,-1.91
2023-03-16T03:21:14.257Z,-1.88
2023-03-16T03:22:14.291Z,-1.84
2023-03-16T03:23:14.204Z,-1.76
2023-03-16T03:24:14.197Z,-1.73
2023-03-16T03:25:14.217Z,-1.76
2023-03-16T03:26:14.188Z,-1.70
2023-03-16T03:27:14.209Z,-1.74
2023-03-16T03:28:14.203Z,-1.69
2023-03-16T03:29:14.145Z,-1.85
2023-03-16T03:30:14.135Z,-1.91
2023-03-16T03:31:14.157Z,-2.00
2023-03-16T03:32:14.343Z,-2.06
2023-03-16T03:33:14.097Z,-2.16
2023-03-16T03:34:14.179Z,-2.09
2023-03-16T03:35:14.081Z,-2.12
2023-03-16T03:36:14.102Z,-2.02
2023-03-16T03:37:14.055Z,-1.95
2023-03-16T03:38:14.062Z,-1.95
2023-03-16T03:39:14.029Z,-1.98
2023-03-16T03:40:14.073Z,-1.95
2023-03-16T03:41:14.015Z,-1.94
2023-03-16T03:42:14.028Z,-1.95
2023-03-16T03:43:14.018Z,-1.94
2023-03-16T03:44:13.991Z,-2.00
2023-03-16T03:45:13.965Z,-1.91
2023-03-16T03:46:14.143Z,-2.00
2023-03-16T03:47:14.058Z,-2.03
2023-03-16T03:48:13.932Z,-1.97
2023-03-16T03:49:13.938Z,-1.95
2023-03-16T03:50:14.119Z,-1.95
2023-03-16T03:51:13.898Z,-2.03
2023-03-16T03:52:13.955Z,-2.03
2023-03-16T03:53:13.877Z,-2.05
2023-03-16T03:54:13.883Z,-1.98
2023-03-16T03:55:13.867Z,-2.15
2023-03-16T03:56:13.873Z,-2.13
2023-03-16T03:57:13.839Z,-2.15
2023-03-16T03:58:13.909Z,-2.20
2023-03-16T03:59:13.834Z,-2.16
2023-03-16T04:00:13.818Z,-2.12
2023-03-16T04:01:13.803Z,-2.08
2023-03-16T04:02:13.964Z,-2.06
2023-03-16T04:03:13.948Z,-2.12
2023-03-16T04:04:13.791Z,-2.00
2023-03-16T04:05:13.770Z,-2.12
2023-03-16T04:06:13.744Z,-2.20
2023-03-16T04:07:13.747Z,-2.16
2023-03-16T04:08:13.708Z,-2.18
2023-03-16T04:09:13.715Z,-2.21
2023-03-16T04:10:13.734Z,-2.21
2023-03-16T04:11:13.702Z,-2.23
2023-03-16T04:12:13.684Z,-2.23
2023-03-16T04:13:13.670Z,-2.26
2023-03-16T04:14:13.645Z,-2.24
2023-03-16T04:15:13.694Z,-2.32
2023-03-16T04:16:13.743Z,-2.39
2023-03-16T04:17:13.627Z,-2.32
2023-03-16T04:18:13.616Z,-2.24
2023-03-16T04:19:13.589Z,-2.32
2023-03-16T04:20:13.588Z,-2.42
2023-03-16T04:21:13.569Z,-2.43
2023-03-16T04:22:13.617Z,-2.30
2023-03-16T04:23:13.584Z,-2.43
2023-03-16T04:24:13.551Z,-2.32
2023-03-16T04:25:13.524Z,-2.39
2023-03-16T04:26:13.512Z,-2.37
2023-03-16T04:27:13.504Z,-2.42
2023-03-16T04:28:13.512Z,-2.45
2023-03-16T04:29:13.528Z,-2.50
2023-03-16T04:30:13.477Z,-2.60
2023-03-16T04:31:13.553Z,-2.48
2023-03-16T04:32:13.447Z,-2.46
2023-03-16T04:33:13.439Z,-2.37
2023-03-16T04:34:13.433Z,-2.37
2023-03-16T04:35:13.484Z,-2.49
2023-03-16T04:36:13.483Z,-2.37
2023-03-16T04:37:13.420Z,-2.37
2023-03-16T04:38:13.377Z,-2.37
2023-03-16T04:39:13.396Z,-2.32
2023-03-16T04:40:13.365Z,-2.23
2023-03-16T04:41:13.412Z,-2.29
2023-03-16T04:42:13.448Z,-2.27
2023-03-16T04:43:13.325Z,-2.21
2023-03-16T04:44:13.313Z,-2.21
2023-03-16T04:45:13.309Z,-2.32
2023-03-16T04:46:13.394Z,-2.39
2023-03-16T04:47:13.347Z,-2.45
2023-03-16T04:48:13.284Z,-2.50
2023-03-16T04:49:13.275Z,-2.39
2023-03-16T04:50:13.254Z,-2.40
2023-03-16T04:51:13.240Z,-2.39
2023-03-16T04:52:13.238Z,-2.35
2023-03-16T04:53:13.292Z,-2.40
2023-03-16T04:54:13.200Z,-2.32
2023-03-16T04:55:13.190Z,-2.42
2023-03-16T04:56:13.191Z,-2.49
2023-03-16T04:57:13.178Z,-2.34
2023-03-16T04:58:13.172Z,-2.45
2023-03-16T04:59:13.221Z,-2.37
2023-03-16T05:00:13.135Z,-2.34
2023-03-16T05:01:13.134Z,-2.32
2023-03-16T05:02:13.112Z,-2.26
2023-03-16T05:03:13.133Z,-2.23
2023-03-16T05:04:18.976Z,-2.23
2023-03-16T05:05:14.204Z,-2.12
2023-03-16T05:06:13.071Z,-2.21
2023-03-16T05:07:13.091Z,-2.13
2023-03-16T05:08:13.048Z,-2.15
2023-03-16T05:09:13.055Z,-2.26
2023-03-16T05:10:13.028Z,-2.29
2023-03-16T05:11:13.083Z,-2.34
2023-03-16T05:12:13.048Z,-2.35
2023-03-16T05:13:13.013Z,-2.37
2023-03-16T05:14:12.988Z,-2.45
2023-03-16T05:15:12.986Z,-2.48
2023-03-16T05:16:13.070Z,-2.64
2023-03-16T05:17:13.008Z,-2.58
2023-03-16T05:18:12.963Z,-2.56
2023-03-16T05:19:12.974Z,-2.40
2023-03-16T05:20:15.484Z,-2.46
2023-03-16T05:21:12.941Z,-2.37
2023-03-16T05:22:12.893Z,-2.42
2023-03-16T05:23:12.951Z,-2.37
2023-03-16T05:24:12.997Z,-2.35
2023-03-16T05:25:12.896Z,-2.50
2023-03-16T05:26:12.867Z,-2.55
2023-03-16T05:27:12.867Z,-2.60
2023-03-16T05:28:12.828Z,-2.49
2023-03-16T05:29:12.817Z,-2.55
2023-03-16T05:30:12.918Z,-2.50
2023-03-16T05:31:12.834Z,-2.56
2023-03-16T05:32:12.805Z,-2.53
2023-03-16T05:33:12.780Z,-2.61
2023-03-16T05:34:12.764Z,-2.63
2023-03-16T05:35:12.774Z,-2.66
2023-03-16T05:36:12.928Z,-2.63
2023-03-16T05:37:12.747Z,-2.58
2023-03-16T05:38:12.739Z,-2.64
2023-03-16T05:39:12.710Z,-2.67
2023-03-16T05:40:12.701Z,-2.66
2023-03-16T05:41:12.712Z,-2.67
2023-03-16T05:42:12.764Z,-2.68
2023-03-16T05:43:12.686Z,-2.73
2023-03-16T05:44:12.677Z,-2.61
2023-03-16T05:45:12.701Z,-2.68
2023-03-16T05:46:12.639Z,-2.79
2023-03-16T05:47:12.675Z,-2.81
2023-03-16T05:48:12.667Z,-2.77
2023-03-16T05:49:12.646Z,-2.74
2023-03-16T05:50:12.602Z,-2.66
2023-03-16T05:51:12.604Z,-2.78
2023-03-16T05:52:12.569Z,-2.79
2023-03-16T05:53:12.570Z,-2.71
2023-03-16T05:54:12.597Z,-2.89
2023-03-16T05:55:12.562Z,-2.91
2023-03-16T05:56:12.527Z,-2.82
2023-03-16T05:57:12.522Z,-2.92
2023-03-16T05:58:12.502Z,-2.86
2023-03-16T05:59:12.553Z,-2.84
2023-03-16T06:00:12.534Z,-2.92
2023-03-16T06:01:12.486Z,-2.92
2023-03-16T06:02:12.495Z,-2.89
2023-03-16T06:03:12.500Z,-2.86
2023-03-16T06:04:12.487Z,-2.91
2023-03-16T06:05:12.430Z,-2.89
2023-03-16T06:06:12.493Z,-2.89
2023-03-16T06:07:12.460Z,-2.86
2023-03-16T06:08:12.391Z,-2.88
2023-03-16T06:09:12.399Z,-2.82
2023-03-16T06:10:12.379Z,-2.88
2023-03-16T06:11:12.362Z,-2.94
2023-03-16T06:12:12.399Z,-2.86
2023-03-16T06:13:12.366Z,-2.89
2023-03-16T06:14:12.382Z,-2.77
2023-03-16T06:15:12.319Z,-2.91
2023-03-16T06:16:12.350Z,-2.86
2023-03-16T06:17:12.307Z,-2.73
2023-03-16T06:18:12.344Z,-2.82
2023-03-16T06:19:12.283Z,-2.81
2023-03-16T06:20:12.280Z,-2.77
2023-03-16T06:21:12.265Z,-2.81
2023-03-16T06:22:12.361Z,-2.71
2023-03-16T06:23:12.282Z,-2.58
2023-03-16T06:24:12.268Z,-2.68
2023-03-16T06:25:12.222Z,-2.64
2023-03-16T06:26:12.237Z,-2.50
2023-03-16T06:27:12.224Z,-2.53
2023-03-16T06:28:12.174Z,-2.42
2023-03-16T06:29:12.182Z,-2.48
2023-03-16T06:30:12.232Z,-2.48
2023-03-16T06:31:12.269Z,-2.49
2023-03-16T06:32:12.136Z,-2.37
2023-03-16T06:33:12.150Z,-2.37
2023-03-16T06:34:12.136Z,-2.43
2023-03-16T06:35:12.120Z,-2.39
2023-03-16T06:36:12.206Z,-2.32
2023-03-16T06:37:12.086Z,-2.32
2023-03-16T06:38:12.069Z,-2.26
2023-03-16T06:39:12.110Z,-2.30
2023-03-16T06:40:12.067Z,-2.23
2023-03-16T06:41:12.051Z,-2.21
2023-03-16T06:42:12.079Z,-2.18
2023-03-16T06:43:12.026Z,-2.15
2023-03-16T06:44:12.028Z,-2.09
2023-03-16T06:45:12.026Z,-2.02
2023-03-16T06:46:12.059Z,-2.06
2023-03-16T06:47:11.983Z,-1.88
2023-03-16T06:48:12.022Z,-1.87
2023-03-16T06:49:11.958Z,-1.82
2023-03-16T06:50:11.973Z,-1.77
2023-03-16T06:51:11.928Z,-1.77
2023-03-16T06:52:11.968Z,-1.69
2023-03-16T06:53:11.925Z,-1.58
2023-03-16T06:54:19.897Z,-1.55
2023-03-16T06:55:11.897Z,-1.55
2023-03-16T06:56:11.901Z,-1.48
2023-03-16T06:57:11.911Z,-1.43
2023-03-16T06:58:11.872Z,-1.41
2023-03-16T06:59:11.845Z,-1.34
2023-03-16T07:00:11.833Z,-1.35
2023-03-16T07:01:11.889Z,-1.22
2023-03-16T07:02:11.819Z,-1.13
2023-03-16T07:03:11.803Z,-0.99
2023-03-16T07:04:11.868Z,-0.86
2023-03-16T07:05:11.769Z,-0.78
2023-03-16T07:06:11.785Z,-0.60
2023-03-16T07:07:11.790Z,-0.64
2023-03-16T07:08:11.736Z,-0.44
2023-03-16T07:09:11.782Z,-0.39
2023-03-16T07:10:11.769Z,-0.43
2023-03-16T07:11:11.743Z,-0.15
2023-03-16T07:12:11.690Z,-0.14
2023-03-16T07:13:11.699Z,-0.11
2023-03-16T07:14:11.693Z,0.00
2023-03-16T07:15:11.669Z,0.03
2023-03-16T07:16:11.717Z,0.15
2023-03-16T07:17:11.640Z,0.13
2023-03-16T07:18:11.625Z,0.23
2023-03-16T07:19:11.660Z,0.33
2023-03-16T07:20:11.631Z,0.39
2023-03-16T07:21:11.651Z,0.49
2023-03-16T07:22:11.583Z,0.60
2023-03-16T07:23:11.564Z,0.68
2023-03-16T07:24:11.561Z,0.66
2023-03-16T07:25:11.647Z,0.73
2023-03-16T07:26:11.585Z,0.75
2023-03-16T07:27:12.626Z,0.78
2023-03-16T07:28:11.517Z,0.86
2023-03-16T07:29:11.501Z,1.04
2023-03-16T07:30:11.497Z,0.93
2023-03-16T07:31:11.480Z,0.94
2023-03-16T07:32:11.665Z,1.06
2023-03-16T07:33:11.545Z,1.15
2023-03-16T07:34:11.456Z,1.18
2023-03-16T07:35:11.439Z,1.20
2023-03-16T07:36:11.490Z,1.32
2023-03-16T07:37:11.424Z,1.33
2023-03-16T07:38:11.434Z,1.27
2023-03-16T07:39:11.494Z,1.42
2023-03-16T07:40:11.401Z,1.44
2023-03-16T07:41:11.400Z,1.45
2023-03-16T07:42:11.408Z,1.54
2023-03-16T07:43:11.372Z,1.58
2023-03-16T07:44:11.405Z,1.66
2023-03-16T07:45:11.318Z,1.63
2023-03-16T07:46:11.475Z,1.66
2023-03-16T07:47:11.326Z,1.70
2023-03-16T07:48:11.295Z,1.76
2023-03-16T07:49:11.323Z,1.79
2023-03-16T07:50:11.338Z,1.80
2023-03-16T07:51:11.304Z,1.77
2023-03-16T07:52:11.273Z,1.83
2023-03-16T07:53:11.230Z,1.91
2023-03-16T07:54:11.232Z,1.87
2023-03-16T07:55:11.236Z,2.03
2023-03-16T07:56:11.208Z,1.91
2023-03-16T07:57:11.193Z,1.84
2023-03-16T07:58:11.289Z,2.02
2023-03-16T07:59:11.211Z,1.98
2023-03-16T08:00:11.306Z,2.03
2023-03-16T08:01:11.167Z,1.95
2023-03-16T08:02:11.213Z,2.00
2023-03-16T08:03:11.175Z,2.10
2023-03-16T08:04:11.119Z,2.06
2023-03-16T08:05:11.185Z,2.21
2023-03-16T08:06:11.133Z,2.20
2023-03-16T08:07:11.072Z,2.27
2023-03-16T08:08:11.119Z,2.25
2023-03-16T08:09:11.117Z,2.34
2023-03-16T08:10:11.041Z,2.39
2023-03-16T08:11:11.043Z,2.31
2023-03-16T08:12:11.045Z,2.42
2023-03-16T08:13:11.007Z,2.48
2023-03-16T08:14:11.091Z,2.53
2023-03-16T08:15:11.001Z,2.49
2023-03-16T08:16:11.082Z,2.61
2023-03-16T08:17:10.974Z,2.64
2023-03-16T08:18:10.996Z,2.60
2023-03-16T08:19:10.946Z,2.67
2023-03-16T08:20:10.960Z,2.74
2023-03-16T08:21:10.948Z,2.77
2023-03-16T08:22:10.916Z,2.82
2023-03-16T08:23:10.954Z,2.90
2023-03-16T08:24:10.889Z,2.84
2023-03-16T08:25:10.926Z,2.92
2023-03-16T08:26:10.923Z,2.92
2023-03-16T08:27:10.853Z,3.00
2023-03-16T08:28:10.865Z,2.97
2023-03-16T08:29:10.918Z,2.99
2023-03-16T08:30:10.841Z,2.97
2023-03-16T08:31:10.933Z,3.00
2023-03-16T08:32:10.849Z,3.08
2023-03-16T08:33:10.905Z,2.99
2023-03-16T08:34:10.868Z,2.90
2023-03-16T08:35:10.764Z,2.89
2023-03-16T08:36:10.775Z,2.95
2023-03-16T08:37:10.744Z,3.00
2023-03-16T08:38:10.774Z,2.87
2023-03-16T08:39:12.091Z,2.97
2023-03-16T08:40:10.741Z,3.00
2023-03-16T08:41:10.693Z,2.90
2023-03-16T08:42:10.703Z,2.90
2023-03-16T08:43:10.678Z,2.97
2023-03-16T08:44:10.703Z,2.95
2023-03-16T08:45:13.786Z,2.95
2023-03-16T08:46:10.683Z,3.05
2023-03-16T08:47:10.688Z,3.11
2023-03-16T08:48:10.615Z,3.17
2023-03-16T08:49:10.620Z,3.18
2023-03-16T08:50:10.599Z,3.26
2023-03-16T08:51:10.616Z,3.35
2023-03-16T08:52:10.604Z,3.40
2023-03-16T08:53:10.557Z,3.36
2023-03-16T08:54:10.549Z,3.47
2023-03-16T08:55:10.539Z,3.48
2023-03-16T08:56:10.543Z,3.52
2023-03-16T08:57:10.563Z,3.51
2023-03-16T08:58:10.507Z,3.52
2023-03-16T08:59:27.051Z,3.55
2023-03-16T09:00:11.493Z,3.54
2023-03-16T09:01:10.470Z,3.61
2023-03-16T09:02:10.582Z,3.70
2023-03-16T09:03:10.486Z,3.66
2023-03-16T09:04:10.493Z,3.70
2023-03-16T09:05:10.437Z,3.78
2023-03-16T09:06:10.427Z,3.72
2023-03-16T09:07:10.432Z,3.79
2023-03-16T09:08:10.409Z,3.80
2023-03-16T09:09:10.417Z,3.78
2023-03-16T09:10:10.383Z,3.80
2023-03-16T09:11:10.357Z,3.90
2023-03-16T09:12:10.352Z,3.96
2023-03-16T09:13:10.375Z,3.97
2023-03-16T09:14:10.345Z,4.00
2023-03-16T09:15:10.329Z,4.06
2023-03-16T09:16:10.387Z,4.20
2023-03-16T09:17:10.321Z,4.22
2023-03-16T09:18:10.299Z,4.27
2023-03-16T09:19:10.295Z,4.26
2023-03-16T09:20:21.892Z,4.30
2023-03-16T09:21:11.275Z,4.37
2023-03-16T09:22:10.243Z,4.45
2023-03-16T09:23:10.220Z,4.42
2023-03-16T09:24:10.271Z,4.47
2023-03-16T09:25:10.215Z,4.45
2023-03-16T09:26:10.229Z,4.48
2023-03-16T09:27:10.272Z,4.50
2023-03-16T09:28:10.196Z,4.40
2023-03-16T09:29:10.153Z,4.42
2023-03-16T09:30:10.160Z,4.52
2023-03-16T09:31:10.270Z,4.51
2023-03-16T09:32:10.123Z,4.55
2023-03-16T09:33:10.315Z,4.60
2023-03-16T09:34:10.131Z,4.58
2023-03-16T09:35:10.094Z,4.55
2023-03-16T09:36:10.206Z,4.59
2023-03-16T09:37:10.101Z,4.60
2023-03-16T09:38:10.051Z,4.59
2023-03-16T09:39:10.076Z,4.52
2023-03-16T09:40:11.994Z,4.63
2023-03-16T09:41:10.036Z,4.63
2023-03-16T09:42:10.015Z,4.62
2023-03-16T09:43:10.045Z,4.58
2023-03-16T09:44:09.995Z,4.65
2023-03-16T09:45:10.019Z,4.67
2023-03-16T09:46:10.019Z,4.69
2023-03-16T09:47:09.963Z,4.77
2023-03-16T09:48:09.952Z,4.73
2023-03-16T09:49:09.992Z,4.94
2023-03-16T09:50:10.037Z,4.96
2023-03-16T09:51:10.008Z,5.06
2023-03-16T09:52:09.909Z,4.99
2023-03-16T09:53:09.912Z,5.20
2023-03-16T09:54:10.023Z,5.17
2023-03-16T09:55:09.870Z,5.18
2023-03-16T09:56:09.922Z,5.20
2023-03-16T09:57:09.848Z,5.22
2023-03-16T09:58:09.859Z,5.25
2023-03-16T09:59:09.854Z,5.30
2023-03-16T10:00:09.813Z,5.42
2023-03-16T10:01:10.031Z,5.45
2023-03-16T10:02:09.817Z,5.56
2023-03-16T10:03:09.796Z,5.58
2023-03-16T10:04:09.889Z,5.51
2023-03-16T10:05:09.827Z,5.45
2023-03-16T10:06:09.801Z,5.43
2023-03-16T10:07:09.733Z,5.53
2023-03-16T10:08:09.737Z,5.49
2023-03-16T10:09:09.726Z,5.57
2023-03-16T10:10:09.772Z,5.43
2023-03-16T10:11:09.723Z,5.60
2023-03-16T10:12:09.683Z,5.68
2023-03-16T10:13:09.703Z,5.65
2023-03-16T10:14:09.696Z,5.64
2023-03-16T10:15:09.740Z,5.60
2023-03-16T10:16:09.719Z,5.58
2023-03-16T10:17:09.682Z,5.46
2023-03-16T10:18:11.276Z,5.39
2023-03-16T10:19:09.604Z,5.40
2023-03-16T10:20:09.596Z,5.39
2023-03-16T10:21:09.585Z,5.45
2023-03-16T10:22:09.654Z,5.36
2023-03-16T10:23:09.572Z,5.43
2023-03-16T10:24:09.541Z,5.48
2023-03-16T10:25:09.568Z,5.58
2023-03-16T10:26:09.543Z,5.48
2023-03-16T10:27:09.500Z,5.56
2023-03-16T10:28:09.489Z,5.57
2023-03-16T10:29:09.537Z,5.67
2023-03-16T10:30:09.502Z,5.71
2023-03-16T10:31:09.462Z,5.75
2023-03-16T10:32:09.482Z,5.75
2023-03-16T10:33:10.368Z,5.71
2023-03-16T10:34:09.432Z,5.65
2023-03-16T10:35:09.428Z,5.61
2023-03-16T10:36:09.469Z,5.53
2023-03-16T10:37:09.401Z,5.51
2023-03-16T10:38:09.430Z,5.45
2023-03-16T10:39:09.367Z,5.36
2023-03-16T10:40:09.372Z,5.42
2023-03-16T10:41:09.435Z,5.27
2023-03-16T10:42:09.747Z,5.30
2023-03-16T10:43:09.357Z,5.38
2023-03-16T10:44:09.318Z,5.35
2023-03-16T10:45:09.300Z,5.35
2023-03-16T10:46:09.391Z,5.43
2023-03-16T10:47:09.396Z,5.43
2023-03-16T10:48:09.328Z,5.45
2023-03-16T10:49:09.272Z,5.42
2023-03-16T10:50:09.248Z,5.35
2023-03-16T10:51:09.258Z,5.39
2023-03-16T10:52:09.226Z,5.38
2023-03-16T10:53:09.229Z,5.48
2023-03-16T10:54:09.236Z,5.54
2023-03-16T10:55:09.224Z,5.56
2023-03-16T10:56:09.186Z,5.54
2023-03-16T10:57:09.177Z,5.56
2023-03-16T10:58:09.175Z,5.63
2023-03-16T10:59:09.159Z,5.57
2023-03-16T11:00:09.278Z,5.60
2023-03-16T11:01:09.205Z,5.67
2023-03-16T11:02:09.118Z,5.71
2023-03-16T11:03:09.109Z,5.85
2023-03-16T11:04:09.217Z,5.74
2023-03-16T11:05:09.137Z,5.89
2023-03-16T11:06:09.105Z,5.83
2023-03-16T11:07:09.060Z,5.85
2023-03-16T11:08:09.050Z,5.72
2023-03-16T11:09:09.072Z,5.79
2023-03-16T11:10:09.078Z,5.82
2023-03-16T11:11:09.066Z,5.65
2023-03-16T11:12:09.035Z,5.82
2023-03-16T11:13:08.996Z,5.85
2023-03-16T11:14:08.984Z,5.86
2023-03-16T11:15:16.786Z,5.97
2023-03-16T11:16:09.984Z,5.96
2023-03-16T11:17:08.966Z,6.03
2023-03-16T11:18:08.965Z,6.12
2023-03-16T11:19:08.976Z,6.06
2023-03-16T11:20:08.930Z,6.08
2023-03-16T11:21:08.924Z,6.15
2023-03-16T11:22:08.908Z,6.06
2023-03-16T11:23:08.932Z,6.17
2023-03-16T11:24:08.910Z,6.12
2023-03-16T11:25:08.941Z,6.09
2023-03-16T11:26:08.948Z,6.12
2023-03-16T11:27:08.840Z,6.12
2023-03-16T11:28:08.876Z,6.15
2023-03-16T11:29:08.818Z,6.21
2023-03-16T11:30:08.848Z,6.15
2023-03-16T11:31:08.863Z,6.33
2023-03-16T11:32:08.799Z,6.28
2023-03-16T11:33:08.891Z,6.43
2023-03-16T11:34:08.785Z,6.38
2023-03-16T11:35:08.821Z,6.41
2023-03-16T11:36:08.801Z,6.43
2023-03-16T11:37:08.747Z,6.52
2023-03-16T11:38:08.717Z,6.58
2023-03-16T11:39:08.719Z,6.61
2023-03-16T11:40:08.727Z,6.55
2023-03-16T11:41:08.733Z,6.51
2023-03-16T11:42:08.693Z,6.64
2023-03-16T11:43:08.671Z,6.71
2023-03-16T11:44:08.653Z,6.70
2023-03-16T11:45:08.647Z,6.70
2023-03-16T11:46:08.742Z,6.70
2023-03-16T11:47:08.639Z,6.64
2023-03-16T11:48:08.622Z,6.74
2023-03-16T11:49:08.610Z,6.73
2023-03-16T11:50:08.616Z,6.77
2023-03-16T11:51:08.732Z,6.79
2023-03-16T11:52:08.599Z,6.74
2023-03-16T11:53:08.557Z,6.80
2023-03-16T11:54:08.536Z,6.88
2023-03-16T11:55:08.522Z,6.94
2023-03-16T11:56:08.516Z,6.92
2023-03-16T11:57:08.502Z,6.95
2023-03-16T11:58:08.594Z,7.07
2023-03-16T11:59:08.505Z,6.98
2023-03-16T12:00:08.463Z,7.12
2023-03-16T12:01:08.466Z,7.06
2023-03-16T12:02:08.537Z,7.20
2023-03-16T12:03:08.545Z,7.20
2023-03-16T12:04:08.493Z,7.12
2023-03-16T12:05:08.426Z,7.16
2023-03-16T12:06:22.141Z,7.23
2023-03-16T12:07:09.376Z,7.21
2023-03-16T12:08:08.411Z,7.28
2023-03-16T12:09:08.523Z,7.16
2023-03-16T12:10:08.346Z,7.28
2023-03-16T12:11:08.360Z,7.27
2023-03-16T12:12:08.332Z,7.23
2023-03-16T12:13:08.325Z,7.27
2023-03-16T12:14:08.352Z,7.34
2023-03-16T12:15:08.290Z,7.46
2023-03-16T12:16:08.315Z,7.45
2023-03-16T12:17:08.414Z,7.43
2023-03-16T12:18:08.267Z,7.55
2023-03-16T12:19:08.276Z,7.52
2023-03-16T12:20:08.240Z,7.61
2023-03-16T12:21:08.227Z,7.60
2023-03-16T12:22:08.217Z,7.53
2023-03-16T12:23:08.199Z,7.74
2023-03-16T12:24:08.208Z,7.68
2023-03-16T12:25:08.178Z,7.69
2023-03-16T12:26:08.216Z,7.82
2023-03-16T12:27:08.151Z,7.80
2023-03-16T12:28:08.142Z,7.67
2023-03-16T12:29:08.138Z,7.75
2023-03-16T12:30:08.385Z,7.72
2023-03-16T12:31:08.128Z,7.71
2023-03-16T12:32:08.106Z,7.69
2023-03-16T12:33:08.087Z,7.69
2023-03-16T12:34:08.100Z,7.69
2023-03-16T12:35:09.662Z,7.77
2023-03-16T12:36:08.130Z,7.68
2023-03-16T12:37:08.043Z,7.75
2023-03-16T12:38:08.040Z,7.77
2023-03-16T12:39:08.039Z,7.85
2023-03-16T12:40:08.024Z,7.77
2023-03-16T12:41:08.022Z,7.86
2023-03-16T12:42:07.984Z,7.82
2023-03-16T12:43:07.979Z,7.80
2023-03-16T12:44:08.085Z,7.85
2023-03-16T12:45:07.978Z,7.97
2023-03-16T12:46:08.158Z,8.00
2023-03-16T12:47:07.960Z,7.85
2023-03-16T12:48:07.925Z,7.85
2023-03-16T12:49:07.929Z,7.79
2023-03-16T12:50:07.924Z,7.95
2023-03-16T12:51:07.927Z,7.93
2023-03-16T12:52:10.094Z,8.00
2023-03-16T12:53:07.884Z,7.98
2023-03-16T12:54:07.849Z,8.02
2023-03-16T12:55:07.880Z,8.10
2023-03-16T12:56:07.854Z,8.04
2023-03-16T12:57:07.822Z,8.05
2023-03-16T12:58:07.817Z,8.00
2023-03-16T12:59:07.796Z,8.08
2023-03-16T13:00:07.785Z,8.00
2023-03-16T13:01:07.854Z,8.11
2023-03-16T13:02:07.799Z,8.15
2023-03-16T13:03:07.761Z,8.15
2023-03-16T13:04:07.783Z,8.22